sensor_id;sensor_type;location;lat;lon;timestamp;P1;durP1;ratioP1;P2;durP2;ratioP2
20232;SDS011;37438;55.674;13.074;2023-03-20T00:02:22;40.78;;;28.90;;
20232;SDS011;37438;55.674;13.074;2023-03-20T00:05:28;41.75;;;27.67;;
20232;SDS011;37438;55.674;13.074;2023-03-20T00:08:34;42.30;;;30.98;;
20232;SDS011;37438;55.674;13.074;2023-03-20T00:11:40;46.05;;;31.10;;
20232;SDS011;37438;55.674;13.074;2023-03-20T00:14:51;49.70;;;33.38;;
20232;SDS011;37438;55.674;13.074;2023-03-20T00:21:00;48.85;;;31.17;;
20232;SDS011;37438;55.674;13.074;2023-03-20T00:24:05;43.20;;;31.27;;
20232;SDS011;37438;55.674;13.074;2023-03-20T00:27:11;49.33;;;32.05;;
20232;SDS011;37438;55.674;13.074;2023-03-20T00:30:22;47.78;;;32.88;;
20232;SDS011;37438;55.674;13.074;2023-03-20T00:33:31;50.05;;;32.58;;
20232;SDS011;37438;55.674;13.074;2023-03-20T00:36:35;46.10;;;31.83;;
20232;SDS011;37438;55.674;13.074;2023-03-20T00:39:40;45.63;;;32.20;;
20232;SDS011;37438;55.674;13.074;2023-03-20T00:42:46;49.75;;;33.22;;
20232;SDS011;37438;55.674;13.074;2023-03-20T00:45:54;45.20;;;32.03;;
20232;SDS011;37438;55.674;13.074;2023-03-20T00:48:59;47.65;;;32.53;;
20232;SDS011;37438;55.674;13.074;2023-03-20T00:52:05;42.22;;;30.88;;
20232;SDS011;37438;55.674;13.074;2023-03-20T00:55:09;44.00;;;30.92;;
20232;SDS011;37438;55.674;13.074;2023-03-20T00:58:14;46.03;;;30.67;;
20232;SDS011;37438;55.674;13.074;2023-03-20T01:01:19;34.15;;;25.02;;
20232;SDS011;37438;55.674;13.074;2023-03-20T01:04:23;42.47;;;30.73;;
20232;SDS011;37438;55.674;13.074;2023-03-20T01:07:31;41.15;;;30.63;;
20232;SDS011;37438;55.674;13.074;2023-03-20T01:10:35;41.17;;;28.73;;
20232;SDS011;37438;55.674;13.074;2023-03-20T01:13:39;44.25;;;31.05;;
20232;SDS011;37438;55.674;13.074;2023-03-20T01:16:44;42.65;;;30.10;;
20232;SDS011;37438;55.674;13.074;2023-03-20T01:19:48;47.37;;;32.07;;
20232;SDS011;37438;55.674;13.074;2023-03-20T01:22:53;50.60;;;32.85;;
20232;SDS011;37438;55.674;13.074;2023-03-20T01:25:57;51.53;;;35.60;;
20232;SDS011;37438;55.674;13.074;2023-03-20T01:29:02;50.20;;;35.38;;
20232;SDS011;37438;55.674;13.074;2023-03-20T01:32:18;58.53;;;37.60;;
20232;SDS011;37438;55.674;13.074;2023-03-20T01:35:27;64.93;;;42.78;;
20232;SDS011;37438;55.674;13.074;2023-03-20T01:38:37;76.18;;;44.67;;
20232;SDS011;37438;55.674;13.074;2023-03-20T01:41:42;71.00;;;46.78;;
20232;SDS011;37438;55.674;13.074;2023-03-20T01:44:48;84.60;;;48.42;;
20232;SDS011;37438;55.674;13.074;2023-03-20T01:47:53;86.93;;;48.92;;
20232;SDS011;37438;55.674;13.074;2023-03-20T01:50:58;78.05;;;47.58;;
20232;SDS011;37438;55.674;13.074;2023-03-20T01:54:10;92.25;;;53.97;;
20232;SDS011;37438;55.674;13.074;2023-03-20T01:57:43;107.18;;;59.17;;
20232;SDS011;37438;55.674;13.074;2023-03-20T02:00:48;185.13;;;55.80;;
20232;SDS011;37438;55.674;13.074;2023-03-20T02:03:55;296.58;;;56.42;;
20232;SDS011;37438;55.674;13.074;2023-03-20T02:07:19;235.07;;;51.80;;
20232;SDS011;37438;55.674;13.074;2023-03-20T02:10:33;446.15;;;63.60;;
20232;SDS011;37438;55.674;13.074;2023-03-20T02:13:50;499.55;;;63.83;;
20232;SDS011;37438;55.674;13.074;2023-03-20T02:16:58;471.83;;;71.15;;
20232;SDS011;37438;55.674;13.074;2023-03-20T02:27:36;379.50;;;54.58;;
20232;SDS011;37438;55.674;13.074;2023-03-20T02:41:45;331.23;;;52.92;;
20232;SDS011;37438;55.674;13.074;2023-03-20T02:44:59;265.42;;;45.95;;
20232;SDS011;37438;55.674;13.074;2023-03-20T02:58:41;236.23;;;40.63;;
20232;SDS011;37438;55.674;13.074;2023-03-20T03:01:54;290.08;;;44.00;;
20232;SDS011;37438;55.674;13.074;2023-03-20T03:05:07;293.73;;;49.13;;
20232;SDS011;37438;55.674;13.074;2023-03-20T03:08:17;260.75;;;41.83;;
20232;SDS011;37438;55.674;13.074;2023-03-20T03:11:25;261.48;;;40.55;;
20232;SDS011;37438;55.674;13.074;2023-03-20T03:17:47;399.65;;;51.67;;
20232;SDS011;37438;55.674;13.074;2023-03-20T03:20:55;320.80;;;41.70;;
20232;SDS011;37438;55.674;13.074;2023-03-20T03:24:04;266.42;;;39.20;;
20232;SDS011;37438;55.674;13.074;2023-03-20T03:27:17;231.13;;;41.53;;
20232;SDS011;37438;55.674;13.074;2023-03-20T03:30:33;228.57;;;44.17;;
20232;SDS011;37438;55.674;13.074;2023-03-20T03:33:42;158.13;;;39.90;;
20232;SDS011;37438;55.674;13.074;2023-03-20T03:40:13;137.15;;;35.95;;
20232;SDS011;37438;55.674;13.074;2023-03-20T03:43:33;113.32;;;29.65;;
20232;SDS011;37438;55.674;13.074;2023-03-20T03:46:52;100.20;;;28.45;;
20232;SDS011;37438;55.674;13.074;2023-03-20T03:50:14;74.47;;;22.15;;
20232;SDS011;37438;55.674;13.074;2023-03-20T03:53:25;67.75;;;20.05;;
20232;SDS011;37438;55.674;13.074;2023-03-20T03:56:34;41.25;;;14.15;;
20232;SDS011;37438;55.674;13.074;2023-03-20T03:59:44;41.55;;;14.60;;
20232;SDS011;37438;55.674;13.074;2023-03-20T04:02:53;35.47;;;13.05;;
20232;SDS011;37438;55.674;13.074;2023-03-20T04:06:00;42.00;;;14.18;;
20232;SDS011;37438;55.674;13.074;2023-03-20T04:09:08;33.90;;;13.05;;
20232;SDS011;37438;55.674;13.074;2023-03-20T04:12:20;33.33;;;12.35;;
20232;SDS011;37438;55.674;13.074;2023-03-20T04:15:33;38.78;;;12.57;;
20232;SDS011;37438;55.674;13.074;2023-03-20T04:18:39;43.67;;;14.68;;
20232;SDS011;37438;55.674;13.074;2023-03-20T04:21:44;58.17;;;17.48;;
20232;SDS011;37438;55.674;13.074;2023-03-20T04:24:48;55.63;;;16.88;;
20232;SDS011;37438;55.674;13.074;2023-03-20T04:27:54;67.05;;;19.40;;
20232;SDS011;37438;55.674;13.074;2023-03-20T04:31:19;68.97;;;19.55;;
20232;SDS011;37438;55.674;13.074;2023-03-20T04:34:43;64.50;;;20.15;;
20232;SDS011;37438;55.674;13.074;2023-03-20T04:38:20;52.53;;;16.17;;
20232;SDS011;37438;55.674;13.074;2023-03-20T04:41:28;46.92;;;16.13;;
20232;SDS011;37438;55.674;13.074;2023-03-20T04:44:34;33.60;;;13.85;;
20232;SDS011;37438;55.674;13.074;2023-03-20T04:47:39;40.63;;;15.32;;
20232;SDS011;37438;55.674;13.074;2023-03-20T04:50:44;38.70;;;14.73;;
20232;SDS011;37438;55.674;13.074;2023-03-20T04:53:57;35.88;;;13.20;;
20232;SDS011;37438;55.674;13.074;2023-03-20T04:57:01;41.07;;;14.30;;
20232;SDS011;37438;55.674;13.074;2023-03-20T05:00:07;43.78;;;14.48;;
20232;SDS011;37438;55.674;13.074;2023-03-20T05:03:13;39.90;;;14.30;;
20232;SDS011;37438;55.674;13.074;2023-03-20T05:06:17;37.63;;;15.25;;
20232;SDS011;37438;55.674;13.074;2023-03-20T05:12:28;37.92;;;13.18;;
20232;SDS011;37438;55.674;13.074;2023-03-20T05:15:56;34.15;;;12.25;;
20232;SDS011;37438;55.674;13.074;2023-03-20T05:19:31;39.83;;;12.95;;
20232;SDS011;37438;55.674;13.074;2023-03-20T05:22:54;38.92;;;15.57;;
20232;SDS011;37438;55.674;13.074;2023-03-20T05:26:16;45.17;;;14.77;;
20232;SDS011;37438;55.674;13.074;2023-03-20T05:29:47;56.10;;;16.67;;
20232;SDS011;37438;55.674;13.074;2023-03-20T05:32:58;92.97;;;20.35;;
20232;SDS011;37438;55.674;13.074;2023-03-20T05:36:02;63.37;;;17.77;;
20232;SDS011;37438;55.674;13.074;2023-03-20T05:39:26;71.55;;;18.48;;
20232;SDS011;37438;55.674;13.074;2023-03-20T05:42:43;79.75;;;16.70;;
20232;SDS011;37438;55.674;13.074;2023-03-20T05:46:21;82.85;;;18.70;;
20232;SDS011;37438;55.674;13.074;2023-03-20T05:49:37;113.13;;;21.02;;
20232;SDS011;37438;55.674;13.074;2023-03-20T05:52:52;191.35;;;29.08;;
20232;SDS011;37438;55.674;13.074;2023-03-20T05:56:22;128.93;;;25.55;;
20232;SDS011;37438;55.674;13.074;2023-03-20T05:59:44;138.88;;;27.05;;
20232;SDS011;37438;55.674;13.074;2023-03-20T06:03:03;97.50;;;22.55;;
20232;SDS011;37438;55.674;13.074;2023-03-20T06:06:27;105.40;;;25.88;;
20232;SDS011;37438;55.674;13.074;2023-03-20T06:09:32;97.03;;;23.58;;
20232;SDS011;37438;55.674;13.074;2023-03-20T06:12:41;110.47;;;26.10;;
20232;SDS011;37438;55.674;13.074;2023-03-20T06:15:46;106.70;;;24.25;;
20232;SDS011;37438;55.674;13.074;2023-03-20T06:18:53;111.80;;;26.30;;
20232;SDS011;37438;55.674;13.074;2023-03-20T06:21:58;116.63;;;26.00;;
20232;SDS011;37438;55.674;13.074;2023-03-20T06:25:03;122.45;;;24.38;;
20232;SDS011;37438;55.674;13.074;2023-03-20T06:28:13;104.95;;;24.05;;
20232;SDS011;37438;55.674;13.074;2023-03-20T06:31:19;150.73;;;30.92;;
20232;SDS011;37438;55.674;13.074;2023-03-20T06:34:24;107.90;;;25.85;;
20232;SDS011;37438;55.674;13.074;2023-03-20T06:37:29;154.70;;;33.65;;
20232;SDS011;37438;55.674;13.074;2023-03-20T06:40:43;110.93;;;26.42;;
20232;SDS011;37438;55.674;13.074;2023-03-20T06:43:53;123.53;;;28.20;;
20232;SDS011;37438;55.674;13.074;2023-03-20T06:47:03;128.77;;;30.60;;
20232;SDS011;37438;55.674;13.074;2023-03-20T06:50:08;99.25;;;23.73;;
20232;SDS011;37438;55.674;13.074;2023-03-20T06:53:13;95.53;;;24.55;;
20232;SDS011;37438;55.674;13.074;2023-03-20T06:56:23;78.95;;;27.15;;
20232;SDS011;37438;55.674;13.074;2023-03-20T06:59:28;82.78;;;23.02;;
20232;SDS011;37438;55.674;13.074;2023-03-20T07:02:33;71.63;;;23.75;;
20232;SDS011;37438;55.674;13.074;2023-03-20T07:05:38;70.57;;;23.75;;
20232;SDS011;37438;55.674;13.074;2023-03-20T07:08:45;74.20;;;23.77;;
20232;SDS011;37438;55.674;13.074;2023-03-20T07:11:50;57.05;;;20.75;;
20232;SDS011;37438;55.674;13.074;2023-03-20T07:14:54;72.60;;;24.23;;
20232;SDS011;37438;55.674;13.074;2023-03-20T07:17:59;55.95;;;20.17;;
20232;SDS011;37438;55.674;13.074;2023-03-20T07:24:11;44.45;;;16.02;;
20232;SDS011;37438;55.674;13.074;2023-03-20T07:27:16;48.53;;;17.38;;
20232;SDS011;37438;55.674;13.074;2023-03-20T07:30:20;52.43;;;18.20;;
20232;SDS011;37438;55.674;13.074;2023-03-20T07:36:30;41.25;;;16.08;;
20232;SDS011;37438;55.674;13.074;2023-03-20T07:39:34;30.75;;;12.93;;
20232;SDS011;37438;55.674;13.074;2023-03-20T07:42:58;30.70;;;12.50;;
20232;SDS011;37438;55.674;13.074;2023-03-20T07:46:27;30.17;;;12.95;;
20232;SDS011;37438;55.674;13.074;2023-03-20T07:49:31;21.63;;;12.20;;
20232;SDS011;37438;55.674;13.074;2023-03-20T07:52:36;28.13;;;11.82;;
20232;SDS011;37438;55.674;13.074;2023-03-20T07:55:42;22.33;;;11.25;;
20232;SDS011;37438;55.674;13.074;2023-03-20T07:58:47;23.25;;;9.68;;
20232;SDS011;37438;55.674;13.074;2023-03-20T08:01:51;21.25;;;11.40;;
20232;SDS011;37438;55.674;13.074;2023-03-20T08:04:55;20.02;;;9.73;;
20232;SDS011;37438;55.674;13.074;2023-03-20T08:08:00;22.20;;;8.43;;
20232;SDS011;37438;55.674;13.074;2023-03-20T08:11:04;14.93;;;6.50;;
20232;SDS011;37438;55.674;13.074;2023-03-20T08:14:09;14.25;;;8.27;;
20232;SDS011;37438;55.674;13.074;2023-03-20T08:17:14;14.50;;;7.50;;
20232;SDS011;37438;55.674;13.074;2023-03-20T08:20:22;14.95;;;7.63;;
20232;SDS011;37438;55.674;13.074;2023-03-20T08:23:26;16.48;;;8.57;;
20232;SDS011;37438;55.674;13.074;2023-03-20T08:26:31;16.02;;;7.68;;
20232;SDS011;37438;55.674;13.074;2023-03-20T08:29:35;17.05;;;7.38;;
20232;SDS011;37438;55.674;13.074;2023-03-20T08:32:40;11.05;;;6.53;;
20232;SDS011;37438;55.674;13.074;2023-03-20T08:35:55;14.48;;;8.10;;
20232;SDS011;37438;55.674;13.074;2023-03-20T08:39:01;13.73;;;7.18;;
20232;SDS011;37438;55.674;13.074;2023-03-20T08:42:06;17.30;;;8.48;;
20232;SDS011;37438;55.674;13.074;2023-03-20T08:45:11;11.68;;;7.18;;
20232;SDS011;37438;55.674;13.074;2023-03-20T08:48:15;15.20;;;8.77;;
20232;SDS011;37438;55.674;13.074;2023-03-20T08:51:20;11.50;;;7.63;;
20232;SDS011;37438;55.674;13.074;2023-03-20T08:54:24;14.02;;;8.20;;
20232;SDS011;37438;55.674;13.074;2023-03-20T08:57:29;15.85;;;7.68;;
20232;SDS011;37438;55.674;13.074;2023-03-20T09:00:34;11.68;;;6.53;;
20232;SDS011;37438;55.674;13.074;2023-03-20T09:03:39;16.83;;;7.38;;
20232;SDS011;37438;55.674;13.074;2023-03-20T09:06:43;13.85;;;7.68;;
20232;SDS011;37438;55.674;13.074;2023-03-20T09:09:48;13.48;;;6.95;;
20232;SDS011;37438;55.674;13.074;2023-03-20T09:12:53;9.40;;;6.32;;
20232;SDS011;37438;55.674;13.074;2023-03-20T09:15:57;9.75;;;6.50;;
20232;SDS011;37438;55.674;13.074;2023-03-20T09:19:02;13.68;;;6.50;;
20232;SDS011;37438;55.674;13.074;2023-03-20T09:22:07;11.18;;;7.30;;
20232;SDS011;37438;55.674;13.074;2023-03-20T09:25:14;10.43;;;6.15;;
20232;SDS011;37438;55.674;13.074;2023-03-20T09:28:18;12.15;;;7.00;;
20232;SDS011;37438;55.674;13.074;2023-03-20T09:31:22;10.63;;;6.32;;
20232;SDS011;37438;55.674;13.074;2023-03-20T09:34:27;15.25;;;7.30;;
20232;SDS011;37438;55.674;13.074;2023-03-20T09:37:32;9.13;;;6.78;;
20232;SDS011;37438;55.674;13.074;2023-03-20T09:47:50;13.82;;;6.50;;
20232;SDS011;37438;55.674;13.074;2023-03-20T09:51:06;10.05;;;6.93;;
20232;SDS011;37438;55.674;13.074;2023-03-20T09:54:42;11.45;;;6.18;;
20232;SDS011;37438;55.674;13.074;2023-03-20T09:57:57;13.85;;;5.38;;
20232;SDS011;37438;55.674;13.074;2023-03-20T10:01:06;13.75;;;5.03;;
20232;SDS011;37438;55.674;13.074;2023-03-20T10:04:17;8.40;;;5.97;;
20232;SDS011;37438;55.674;13.074;2023-03-20T10:07:22;13.32;;;6.40;;
20232;SDS011;37438;55.674;13.074;2023-03-20T10:20:25;7.95;;;5.13;;
20232;SDS011;37438;55.674;13.074;2023-03-20T10:27:01;16.90;;;6.10;;
20232;SDS011;37438;55.674;13.074;2023-03-20T10:33:45;7.57;;;4.70;;
20232;SDS011;37438;55.674;13.074;2023-03-20T10:40:32;12.10;;;5.18;;
20232;SDS011;37438;55.674;13.074;2023-03-20T10:43:39;3.85;;;3.05;;
20232;SDS011;37438;55.674;13.074;2023-03-20T10:46:47;5.80;;;4.00;;
20232;SDS011;37438;55.674;13.074;2023-03-20T10:53:47;5.20;;;3.75;;
20232;SDS011;37438;55.674;13.074;2023-03-20T10:56:55;11.27;;;3.95;;
20232;SDS011;37438;55.674;13.074;2023-03-20T11:00:06;4.70;;;3.67;;
20232;SDS011;37438;55.674;13.074;2023-03-20T11:03:27;5.55;;;3.70;;
20232;SDS011;37438;55.674;13.074;2023-03-20T11:06:35;10.75;;;3.95;;
20232;SDS011;37438;55.674;13.074;2023-03-20T11:16:38;9.27;;;4.22;;
20232;SDS011;37438;55.674;13.074;2023-03-20T11:19:43;9.10;;;3.58;;
20232;SDS011;37438;55.674;13.074;2023-03-20T11:22:47;10.82;;;4.53;;
20232;SDS011;37438;55.674;13.074;2023-03-20T11:25:58;6.30;;;3.42;;
20232;SDS011;37438;55.674;13.074;2023-03-20T11:29:07;8.38;;;3.78;;
20232;SDS011;37438;55.674;13.074;2023-03-20T11:35:33;8.13;;;3.88;;
20232;SDS011;37438;55.674;13.074;2023-03-20T11:38:42;6.35;;;3.58;;
20232;SDS011;37438;55.674;13.074;2023-03-20T11:41:58;5.80;;;4.05;;
20232;SDS011;37438;55.674;13.074;2023-03-20T11:45:12;7.22;;;4.13;;
20232;SDS011;37438;55.674;13.074;2023-03-20T11:48:25;8.27;;;4.07;;
20232;SDS011;37438;55.674;13.074;2023-03-20T11:51:58;8.93;;;4.50;;
20232;SDS011;37438;55.674;13.074;2023-03-20T11:55:27;13.20;;;3.95;;
20232;SDS011;37438;55.674;13.074;2023-03-20T11:58:34;10.95;;;4.60;;
20232;SDS011;37438;55.674;13.074;2023-03-20T12:01:48;8.15;;;4.22;;
20232;SDS011;37438;55.674;13.074;2023-03-20T12:04:57;5.50;;;3.92;;
20232;SDS011;37438;55.674;13.074;2023-03-20T12:08:05;10.85;;;4.05;;
20232;SDS011;37438;55.674;13.074;2023-03-20T12:15:01;5.70;;;3.97;;
20232;SDS011;37438;55.674;13.074;2023-03-20T12:18:24;11.45;;;4.60;;
20232;SDS011;37438;55.674;13.074;2023-03-20T12:21:40;9.02;;;4.47;;
20232;SDS011;37438;55.674;13.074;2023-03-20T12:24:57;9.93;;;4.93;;
20232;SDS011;37438;55.674;13.074;2023-03-20T12:28:27;8.15;;;4.53;;
20232;SDS011;37438;55.674;13.074;2023-03-20T12:32:02;7.68;;;3.90;;
20232;SDS011;37438;55.674;13.074;2023-03-20T12:35:15;13.02;;;4.85;;
20232;SDS011;37438;55.674;13.074;2023-03-20T12:38:31;8.70;;;4.07;;
20232;SDS011;37438;55.674;13.074;2023-03-20T12:44:46;16.52;;;5.05;;
20232;SDS011;37438;55.674;13.074;2023-03-20T12:48:17;10.20;;;4.88;;
20232;SDS011;37438;55.674;13.074;2023-03-20T12:51:41;9.23;;;4.25;;
20232;SDS011;37438;55.674;13.074;2023-03-20T13:01:55;8.43;;;4.07;;
20232;SDS011;37438;55.674;13.074;2023-03-20T13:08:46;5.18;;;3.67;;
20232;SDS011;37438;55.674;13.074;2023-03-20T13:18:54;6.97;;;2.80;;
20232;SDS011;37438;55.674;13.074;2023-03-20T13:22:15;4.78;;;2.60;;
20232;SDS011;37438;55.674;13.074;2023-03-20T13:25:33;3.38;;;2.05;;
20232;SDS011;37438;55.674;13.074;2023-03-20T13:32:28;3.35;;;2.40;;
20232;SDS011;37438;55.674;13.074;2023-03-20T13:42:40;3.35;;;2.03;;
20232;SDS011;37438;55.674;13.074;2023-03-20T13:45:48;5.05;;;1.60;;
20232;SDS011;37438;55.674;13.074;2023-03-20T13:49:01;3.97;;;2.28;;
20232;SDS011;37438;55.674;13.074;2023-03-20T13:52:19;4.45;;;1.73;;
20232;SDS011;37438;55.674;13.074;2023-03-20T13:55:50;5.88;;;1.77;;
20232;SDS011;37438;55.674;13.074;2023-03-20T13:59:04;2.40;;;1.77;;
20232;SDS011;37438;55.674;13.074;2023-03-20T14:02:18;4.00;;;2.00;;
20232;SDS011;37438;55.674;13.074;2023-03-20T14:05:44;4.65;;;1.92;;
20232;SDS011;37438;55.674;13.074;2023-03-20T14:08:53;5.07;;;1.60;;
20232;SDS011;37438;55.674;13.074;2023-03-20T14:12:11;3.30;;;1.95;;
20232;SDS011;37438;55.674;13.074;2023-03-20T14:15:17;4.00;;;2.30;;
20232;SDS011;37438;55.674;13.074;2023-03-20T14:18:23;3.80;;;2.75;;
20232;SDS011;37438;55.674;13.074;2023-03-20T14:21:29;3.28;;;2.55;;
20232;SDS011;37438;55.674;13.074;2023-03-20T14:24:34;7.13;;;2.72;;
20232;SDS011;37438;55.674;13.074;2023-03-20T14:27:54;5.63;;;3.13;;
20232;SDS011;37438;55.674;13.074;2023-03-20T14:31:12;5.47;;;4.22;;
20232;SDS011;37438;55.674;13.074;2023-03-20T14:34:45;4.97;;;3.35;;
20232;SDS011;37438;55.674;13.074;2023-03-20T14:51:40;6.55;;;4.40;;
20232;SDS011;37438;55.674;13.074;2023-03-20T14:54:51;8.13;;;3.83;;
20232;SDS011;37438;55.674;13.074;2023-03-20T14:58:01;5.22;;;3.83;;
20232;SDS011;37438;55.674;13.074;2023-03-20T15:01:09;11.40;;;3.83;;
20232;SDS011;37438;55.674;13.074;2023-03-20T15:04:34;3.45;;;2.75;;
20232;SDS011;37438;55.674;13.074;2023-03-20T15:07:43;3.90;;;3.30;;
20232;SDS011;37438;55.674;13.074;2023-03-20T15:10:50;6.40;;;3.15;;
20232;SDS011;37438;55.674;13.074;2023-03-20T15:13:59;4.18;;;3.33;;
20232;SDS011;37438;55.674;13.074;2023-03-20T15:17:06;4.13;;;2.83;;
20232;SDS011;37438;55.674;13.074;2023-03-20T15:23:25;5.30;;;3.17;;
20232;SDS011;37438;55.674;13.074;2023-03-20T15:32:41;4.88;;;2.20;;
20232;SDS011;37438;55.674;13.074;2023-03-20T15:35:46;5.10;;;2.30;;
20232;SDS011;37438;55.674;13.074;2023-03-20T15:38:50;2.60;;;1.85;;
20232;SDS011;37438;55.674;13.074;2023-03-20T15:42:02;4.18;;;1.42;;
20232;SDS011;37438;55.674;13.074;2023-03-20T15:45:21;3.17;;;1.13;;
20232;SDS011;37438;55.674;13.074;2023-03-20T15:48:29;9.00;;;1.75;;
20232;SDS011;37438;55.674;13.074;2023-03-20T15:51:34;7.85;;;2.05;;
20232;SDS011;37438;55.674;13.074;2023-03-20T15:57:45;4.07;;;1.33;;
20232;SDS011;37438;55.674;13.074;2023-03-20T16:00:53;2.30;;;1.58;;
20232;SDS011;37438;55.674;13.074;2023-03-20T16:03:57;3.97;;;1.95;;
20232;SDS011;37438;55.674;13.074;2023-03-20T16:07:03;4.10;;;2.03;;
20232;SDS011;37438;55.674;13.074;2023-03-20T16:13:44;3.53;;;1.50;;
20232;SDS011;37438;55.674;13.074;2023-03-20T16:16:50;3.50;;;1.55;;
20232;SDS011;37438;55.674;13.074;2023-03-20T16:19:57;3.72;;;1.42;;
20232;SDS011;37438;55.674;13.074;2023-03-20T16:23:03;5.35;;;2.28;;
20232;SDS011;37438;55.674;13.074;2023-03-20T16:26:12;10.80;;;2.50;;
20232;SDS011;37438;55.674;13.074;2023-03-20T16:29:20;4.68;;;1.55;;
20232;SDS011;37438;55.674;13.074;2023-03-20T16:35:44;4.20;;;2.42;;
20232;SDS011;37438;55.674;13.074;2023-03-20T16:39:01;10.23;;;1.60;;
20232;SDS011;37438;55.674;13.074;2023-03-20T16:42:21;10.57;;;2.45;;
20232;SDS011;37438;55.674;13.074;2023-03-20T16:45:29;7.20;;;1.60;;
20232;SDS011;37438;55.674;13.074;2023-03-20T16:48:36;4.68;;;1.52;;
20232;SDS011;37438;55.674;13.074;2023-03-20T16:51:42;7.45;;;1.75;;
20232;SDS011;37438;55.674;13.074;2023-03-20T16:54:47;7.80;;;1.50;;
20232;SDS011;37438;55.674;13.074;2023-03-20T16:57:53;4.80;;;1.00;;
20232;SDS011;37438;55.674;13.074;2023-03-20T17:01:04;3.13;;;1.30;;
20232;SDS011;37438;55.674;13.074;2023-03-20T17:04:18;5.03;;;1.30;;
20232;SDS011;37438;55.674;13.074;2023-03-20T17:07:24;5.45;;;1.30;;
20232;SDS011;37438;55.674;13.074;2023-03-20T17:10:31;4.20;;;1.13;;
20232;SDS011;37438;55.674;13.074;2023-03-20T17:13:35;5.75;;;1.20;;
20232;SDS011;37438;55.674;13.074;2023-03-20T17:16:40;3.70;;;1.00;;
20232;SDS011;37438;55.674;13.074;2023-03-20T17:19:44;4.57;;;0.93;;
20232;SDS011;37438;55.674;13.074;2023-03-20T17:22:50;6.25;;;0.90;;
20232;SDS011;37438;55.674;13.074;2023-03-20T17:25:55;7.97;;;1.17;;
20232;SDS011;37438;55.674;13.074;2023-03-20T17:28:59;3.47;;;0.80;;
20232;SDS011;37438;55.674;13.074;2023-03-20T17:32:14;4.35;;;0.68;;
20232;SDS011;37438;55.674;13.074;2023-03-20T17:35:20;5.72;;;0.75;;
20232;SDS011;37438;55.674;13.074;2023-03-20T17:38:24;8.32;;;0.88;;
20232;SDS011;37438;55.674;13.074;2023-03-20T17:41:28;5.95;;;1.35;;
20232;SDS011;37438;55.674;13.074;2023-03-20T17:44:33;3.23;;;1.30;;
20232;SDS011;37438;55.674;13.074;2023-03-20T17:47:37;6.50;;;1.30;;
20232;SDS011;37438;55.674;13.074;2023-03-20T17:50:44;4.05;;;1.15;;
20232;SDS011;37438;55.674;13.074;2023-03-20T17:53:50;5.75;;;1.77;;
20232;SDS011;37438;55.674;13.074;2023-03-20T17:57:00;3.55;;;1.10;;
20232;SDS011;37438;55.674;13.074;2023-03-20T18:00:05;1.55;;;0.80;;
20232;SDS011;37438;55.674;13.074;2023-03-20T18:03:13;5.15;;;1.00;;
20232;SDS011;37438;55.674;13.074;2023-03-20T18:06:25;8.43;;;2.53;;
20232;SDS011;37438;55.674;13.074;2023-03-20T18:09:31;5.22;;;2.20;;
20232;SDS011;37438;55.674;13.074;2023-03-20T18:12:36;1.75;;;1.30;;
20232;SDS011;37438;55.674;13.074;2023-03-20T18:15:41;2.63;;;1.23;;
20232;SDS011;37438;55.674;13.074;2023-03-20T18:18:47;5.53;;;1.40;;
20232;SDS011;37438;55.674;13.074;2023-03-20T18:21:51;8.48;;;1.60;;
20232;SDS011;37438;55.674;13.074;2023-03-20T18:24:56;2.38;;;1.10;;
20232;SDS011;37438;55.674;13.074;2023-03-20T18:28:01;2.03;;;1.00;;
20232;SDS011;37438;55.674;13.074;2023-03-20T18:31:07;4.70;;;1.35;;
20232;SDS011;37438;55.674;13.074;2023-03-20T18:34:11;8.57;;;1.30;;
20232;SDS011;37438;55.674;13.074;2023-03-20T18:37:15;4.30;;;1.40;;
20232;SDS011;37438;55.674;13.074;2023-03-20T18:40:22;7.43;;;0.95;;
20232;SDS011;37438;55.674;13.074;2023-03-20T18:43:29;11.55;;;1.77;;
20232;SDS011;37438;55.674;13.074;2023-03-20T18:46:33;9.30;;;2.03;;
20232;SDS011;37438;55.674;13.074;2023-03-20T18:49:38;3.53;;;1.58;;
20232;SDS011;37438;55.674;13.074;2023-03-20T18:52:43;4.03;;;1.75;;
20232;SDS011;37438;55.674;13.074;2023-03-20T18:55:47;10.13;;;3.42;;
20232;SDS011;37438;55.674;13.074;2023-03-20T18:58:52;6.33;;;1.70;;
20232;SDS011;37438;55.674;13.074;2023-03-20T19:01:56;6.40;;;1.98;;
20232;SDS011;37438;55.674;13.074;2023-03-20T19:05:01;5.70;;;1.58;;
20232;SDS011;37438;55.674;13.074;2023-03-20T19:08:05;3.80;;;1.63;;
20232;SDS011;37438;55.674;13.074;2023-03-20T19:11:10;9.60;;;2.00;;
20232;SDS011;37438;55.674;13.074;2023-03-20T19:14:18;7.97;;;1.73;;
20232;SDS011;37438;55.674;13.074;2023-03-20T19:17:23;9.52;;;1.73;;
20232;SDS011;37438;55.674;13.074;2023-03-20T19:20:32;6.13;;;1.30;;
20232;SDS011;37438;55.674;13.074;2023-03-20T19:23:42;5.13;;;1.27;;
20232;SDS011;37438;55.674;13.074;2023-03-20T19:26:46;2.50;;;1.27;;
20232;SDS011;37438;55.674;13.074;2023-03-20T19:29:51;3.72;;;1.05;;
20232;SDS011;37438;55.674;13.074;2023-03-20T19:32:59;4.95;;;1.50;;
20232;SDS011;37438;55.674;13.074;2023-03-20T19:36:05;4.70;;;1.70;;
20232;SDS011;37438;55.674;13.074;2023-03-20T19:39:11;10.75;;;1.52;;
20232;SDS011;37438;55.674;13.074;2023-03-20T19:42:17;10.00;;;1.67;;
20232;SDS011;37438;55.674;13.074;2023-03-20T19:45:42;6.22;;;2.45;;
20232;SDS011;37438;55.674;13.074;2023-03-20T19:48:47;5.65;;;2.03;;
20232;SDS011;37438;55.674;13.074;2023-03-20T19:51:54;4.35;;;1.90;;
20232;SDS011;37438;55.674;13.074;2023-03-20T19:54:58;9.20;;;2.17;;
20232;SDS011;37438;55.674;13.074;2023-03-20T19:58:06;8.57;;;2.75;;
20232;SDS011;37438;55.674;13.074;2023-03-20T20:01:19;6.50;;;2.75;;
20232;SDS011;37438;55.674;13.074;2023-03-20T20:04:25;5.95;;;3.22;;
20232;SDS011;37438;55.674;13.074;2023-03-20T20:07:30;4.25;;;2.72;;
20232;SDS011;37438;55.674;13.074;2023-03-20T20:10:55;7.43;;;3.30;;
20232;SDS011;37438;55.674;13.074;2023-03-20T20:14:00;12.32;;;4.50;;
20232;SDS011;37438;55.674;13.074;2023-03-20T20:17:11;11.27;;;4.57;;
20232;SDS011;37438;55.674;13.074;2023-03-20T20:20:19;13.90;;;5.13;;
20232;SDS011;37438;55.674;13.074;2023-03-20T20:23:28;11.40;;;4.63;;
20232;SDS011;37438;55.674;13.074;2023-03-20T20:26:32;10.43;;;4.85;;
20232;SDS011;37438;55.674;13.074;2023-03-20T20:29:47;13.15;;;5.70;;
20232;SDS011;37438;55.674;13.074;2023-03-20T20:32:53;9.43;;;4.70;;
20232;SDS011;37438;55.674;13.074;2023-03-20T20:36:10;7.45;;;3.72;;
20232;SDS011;37438;55.674;13.074;2023-03-20T20:39:35;9.45;;;4.10;;
20232;SDS011;37438;55.674;13.074;2023-03-20T20:42:40;6.13;;;4.00;;
20232;SDS011;37438;55.674;13.074;2023-03-20T20:45:46;9.55;;;3.75;;
20232;SDS011;37438;55.674;13.074;2023-03-20T20:48:53;11.00;;;4.15;;
20232;SDS011;37438;55.674;13.074;2023-03-20T20:51:57;12.77;;;4.05;;
20232;SDS011;37438;55.674;13.074;2023-03-20T20:55:02;8.98;;;3.70;;
20232;SDS011;37438;55.674;13.074;2023-03-20T20:58:25;10.20;;;3.67;;
20232;SDS011;37438;55.674;13.074;2023-03-20T21:01:30;8.95;;;3.40;;
20232;SDS011;37438;55.674;13.074;2023-03-20T21:04:35;10.50;;;4.07;;
20232;SDS011;37438;55.674;13.074;2023-03-20T21:07:44;9.40;;;3.95;;